sensor_id;sensor_type;location;lat;lon;timestamp;P1;durP1;ratioP1;P2;durP2;ratioP2
66669;SDS011;53568;52.164;4.472;2023-02-11T00:01:28;9.75;;;7.43;;
66669;SDS011;53568;52.164;4.472;2023-02-11T00:03:55;9.10;;;7.04;;
66669;SDS011;53568;52.164;4.472;2023-02-11T00:06:22;9.41;;;7.16;;
66669;SDS011;53568;52.164;4.472;2023-02-11T00:08:49;8.98;;;6.81;;
66669;SDS011;53568;52.164;4.472;2023-02-11T00:11:16;9.81;;;7.47;;
66669;SDS011;53568;52.164;4.472;2023-02-11T00:13:43;9.61;;;7.52;;
66669;SDS011;53568;52.164;4.472;2023-02-11T00:16:11;9.18;;;7.52;;
66669;SDS011;53568;52.164;4.472;2023-02-11T00:18:39;9.62;;;7.92;;
66669;SDS011;53568;52.164;4.472;2023-02-11T00:21:05;9.06;;;7.46;;
66669;SDS011;53568;52.164;4.472;2023-02-11T00:23:32;8.33;;;7.06;;
66669;SDS011;53568;52.164;4.472;2023-02-11T00:25:58;8.55;;;7.20;;
66669;SDS011;53568;52.164;4.472;2023-02-11T00:28:23;9.58;;;7.56;;
66669;SDS011;53568;52.164;4.472;2023-02-11T00:30:56;9.78;;;7.70;;
66669;SDS011;53568;52.164;4.472;2023-02-11T00:33:22;9.09;;;7.34;;
66669;SDS011;53568;52.164;4.472;2023-02-11T00:35:48;8.60;;;7.25;;
66669;SDS011;53568;52.164;4.472;2023-02-11T00:38:14;9.35;;;7.76;;
66669;SDS011;53568;52.164;4.472;2023-02-11T00:40:39;8.92;;;7.49;;
66669;SDS011;53568;52.164;4.472;2023-02-11T00:43:08;9.23;;;7.80;;
66669;SDS011;53568;52.164;4.472;2023-02-11T00:45:33;9.60;;;8.09;;
66669;SDS011;53568;52.164;4.472;2023-02-11T00:47:59;8.82;;;7.47;;
66669;SDS011;53568;52.164;4.472;2023-02-11T00:50:24;9.07;;;7.82;;
66669;SDS011;53568;52.164;4.472;2023-02-11T00:52:50;9.10;;;7.88;;
66669;SDS011;53568;52.164;4.472;2023-02-11T00:55:15;8.96;;;7.64;;
66669;SDS011;53568;52.164;4.472;2023-02-11T00:57:42;8.57;;;7.53;;
66669;SDS011;53568;52.164;4.472;2023-02-11T01:00:08;9.15;;;7.94;;
66669;SDS011;53568;52.164;4.472;2023-02-11T01:02:37;9.41;;;8.19;;
66669;SDS011;53568;52.164;4.472;2023-02-11T01:05:02;9.92;;;8.61;;
66669;SDS011;53568;52.164;4.472;2023-02-11T01:07:29;10.04;;;8.61;;
66669;SDS011;53568;52.164;4.472;2023-02-11T01:09:54;9.63;;;8.22;;
66669;SDS011;53568;52.164;4.472;2023-02-11T01:12:20;9.73;;;8.24;;
66669;SDS011;53568;52.164;4.472;2023-02-11T01:14:46;9.40;;;8.11;;
66669;SDS011;53568;52.164;4.472;2023-02-11T01:17:11;9.89;;;8.49;;
66669;SDS011;53568;52.164;4.472;2023-02-11T01:19:37;9.64;;;8.39;;
66669;SDS011;53568;52.164;4.472;2023-02-11T01:22:03;9.59;;;8.46;;
66669;SDS011;53568;52.164;4.472;2023-02-11T01:24:28;9.92;;;8.87;;
66669;SDS011;53568;52.164;4.472;2023-02-11T01:26:54;9.95;;;8.98;;
66669;SDS011;53568;52.164;4.472;2023-02-11T01:29:20;9.56;;;8.60;;
66669;SDS011;53568;52.164;4.472;2023-02-11T01:31:48;10.52;;;9.18;;
66669;SDS011;53568;52.164;4.472;2023-02-11T01:34:14;10.70;;;9.49;;
66669;SDS011;53568;52.164;4.472;2023-02-11T01:36:40;10.73;;;9.43;;
66669;SDS011;53568;52.164;4.472;2023-02-11T01:39:06;9.85;;;8.82;;
66669;SDS011;53568;52.164;4.472;2023-02-11T01:41:33;10.31;;;9.14;;
66669;SDS011;53568;52.164;4.472;2023-02-11T01:46:54;10.81;;;9.52;;
66669;SDS011;53568;52.164;4.472;2023-02-11T01:49:22;10.47;;;9.30;;
66669;SDS011;53568;52.164;4.472;2023-02-11T01:51:58;10.53;;;9.63;;
66669;SDS011;53568;52.164;4.472;2023-02-11T01:54:29;10.42;;;9.50;;
66669;SDS011;53568;52.164;4.472;2023-02-11T01:57:18;10.61;;;9.71;;
66669;SDS011;53568;52.164;4.472;2023-02-11T02:10:35;11.29;;;10.45;;
66669;SDS011;53568;52.164;4.472;2023-02-11T02:13:06;10.90;;;10.26;;
66669;SDS011;53568;52.164;4.472;2023-02-11T02:15:32;11.87;;;10.88;;
66669;SDS011;53568;52.164;4.472;2023-02-11T02:18:02;11.86;;;10.91;;
66669;SDS011;53568;52.164;4.472;2023-02-11T02:37:14;13.21;;;12.33;;
66669;SDS011;53568;52.164;4.472;2023-02-11T02:39:56;13.68;;;12.90;;
66669;SDS011;53568;52.164;4.472;2023-02-11T02:42:29;13.65;;;12.88;;
66669;SDS011;53568;52.164;4.472;2023-02-11T02:44:56;14.50;;;13.58;;
66669;SDS011;53568;52.164;4.472;2023-02-11T02:47:22;14.94;;;13.99;;
66669;SDS011;53568;52.164;4.472;2023-02-11T02:49:48;14.83;;;13.85;;
66669;SDS011;53568;52.164;4.472;2023-02-11T02:57:57;14.80;;;13.97;;
66669;SDS011;53568;52.164;4.472;2023-02-11T03:01:07;14.80;;;14.09;;
66669;SDS011;53568;52.164;4.472;2023-02-11T03:04:11;15.03;;;14.23;;
66669;SDS011;53568;52.164;4.472;2023-02-11T03:10:20;15.28;;;14.54;;
66669;SDS011;53568;52.164;4.472;2023-02-11T03:13:04;14.98;;;14.39;;
66669;SDS011;53568;52.164;4.472;2023-02-11T03:15:33;15.78;;;14.86;;
66669;SDS011;53568;52.164;4.472;2023-02-11T03:18:03;15.93;;;15.13;;
66669;SDS011;53568;52.164;4.472;2023-02-11T03:20:34;15.38;;;14.65;;
66669;SDS011;53568;52.164;4.472;2023-02-11T03:23:07;16.31;;;15.28;;
66669;SDS011;53568;52.164;4.472;2023-02-11T03:25:43;16.29;;;15.35;;
66669;SDS011;53568;52.164;4.472;2023-02-11T03:30:55;16.95;;;16.07;;
66669;SDS011;53568;52.164;4.472;2023-02-11T03:33:30;16.74;;;16.01;;
66669;SDS011;53568;52.164;4.472;2023-02-11T03:36:14;16.98;;;16.31;;
66669;SDS011;53568;52.164;4.472;2023-02-11T03:38:51;17.27;;;16.62;;
66669;SDS011;53568;52.164;4.472;2023-02-11T03:41:23;18.28;;;17.57;;
66669;SDS011;53568;52.164;4.472;2023-02-11T03:43:54;18.25;;;17.56;;
66669;SDS011;53568;52.164;4.472;2023-02-11T03:46:23;19.10;;;18.12;;
66669;SDS011;53568;52.164;4.472;2023-02-11T03:48:57;19.23;;;18.26;;
66669;SDS011;53568;52.164;4.472;2023-02-11T03:51:29;18.89;;;18.19;;
66669;SDS011;53568;52.164;4.472;2023-02-11T03:53:57;18.99;;;18.01;;
66669;SDS011;53568;52.164;4.472;2023-02-11T03:56:29;19.05;;;17.98;;
66669;SDS011;53568;52.164;4.472;2023-02-11T03:59:00;18.39;;;17.62;;
66669;SDS011;53568;52.164;4.472;2023-02-11T04:01:26;19.06;;;18.06;;
66669;SDS011;53568;52.164;4.472;2023-02-11T04:03:51;18.76;;;17.90;;
66669;SDS011;53568;52.164;4.472;2023-02-11T04:06:17;19.41;;;18.35;;
66669;SDS011;53568;52.164;4.472;2023-02-11T04:08:42;19.35;;;18.45;;
66669;SDS011;53568;52.164;4.472;2023-02-11T04:11:08;19.62;;;18.61;;
66669;SDS011;53568;52.164;4.472;2023-02-11T04:13:33;19.07;;;18.23;;
66669;SDS011;53568;52.164;4.472;2023-02-11T04:15:59;19.81;;;18.77;;
66669;SDS011;53568;52.164;4.472;2023-02-11T04:18:24;19.64;;;18.71;;
66669;SDS011;53568;52.164;4.472;2023-02-11T04:20:50;19.95;;;19.18;;
66669;SDS011;53568;52.164;4.472;2023-02-11T04:23:16;19.81;;;19.10;;
66669;SDS011;53568;52.164;4.472;2023-02-11T04:25:41;21.90;;;20.64;;
66669;SDS011;53568;52.164;4.472;2023-02-11T04:28:07;21.58;;;20.52;;
66669;SDS011;53568;52.164;4.472;2023-02-11T04:30:32;20.76;;;19.87;;
66669;SDS011;53568;52.164;4.472;2023-02-11T04:32:58;21.85;;;20.78;;
66669;SDS011;53568;52.164;4.472;2023-02-11T04:35:23;21.85;;;20.64;;
66669;SDS011;53568;52.164;4.472;2023-02-11T04:37:49;21.67;;;20.55;;
66669;SDS011;53568;52.164;4.472;2023-02-11T04:40:15;22.86;;;21.41;;
66669;SDS011;53568;52.164;4.472;2023-02-11T04:42:40;22.65;;;21.56;;
66669;SDS011;53568;52.164;4.472;2023-02-11T04:45:06;21.85;;;21.00;;
66669;SDS011;53568;52.164;4.472;2023-02-11T04:47:32;23.37;;;22.24;;
66669;SDS011;53568;52.164;4.472;2023-02-11T04:49:58;22.89;;;21.95;;
66669;SDS011;53568;52.164;4.472;2023-02-11T04:52:23;23.90;;;22.85;;
66669;SDS011;53568;52.164;4.472;2023-02-11T04:54:49;23.17;;;22.23;;
66669;SDS011;53568;52.164;4.472;2023-02-11T04:57:14;24.72;;;23.55;;
66669;SDS011;53568;52.164;4.472;2023-02-11T04:59:40;25.21;;;23.83;;
66669;SDS011;53568;52.164;4.472;2023-02-11T05:02:06;25.31;;;24.20;;
66669;SDS011;53568;52.164;4.472;2023-02-11T05:04:31;26.43;;;24.92;;
66669;SDS011;53568;52.164;4.472;2023-02-11T05:06:57;25.74;;;24.60;;
66669;SDS011;53568;52.164;4.472;2023-02-11T05:09:22;25.83;;;24.55;;
66669;SDS011;53568;52.164;4.472;2023-02-11T05:11:48;24.89;;;24.04;;
66669;SDS011;53568;52.164;4.472;2023-02-11T05:14:13;26.25;;;25.02;;
66669;SDS011;53568;52.164;4.472;2023-02-11T05:16:39;27.15;;;25.59;;
66669;SDS011;53568;52.164;4.472;2023-02-11T05:19:04;26.44;;;25.24;;
66669;SDS011;53568;52.164;4.472;2023-02-11T05:21:30;26.59;;;25.13;;
66669;SDS011;53568;52.164;4.472;2023-02-11T05:23:56;26.67;;;25.20;;
66669;SDS011;53568;52.164;4.472;2023-02-11T05:26:21;26.79;;;25.62;;
66669;SDS011;53568;52.164;4.472;2023-02-11T05:28:47;26.80;;;25.53;;
66669;SDS011;53568;52.164;4.472;2023-02-11T05:31:13;27.44;;;26.09;;
66669;SDS011;53568;52.164;4.472;2023-02-11T05:33:39;27.23;;;26.21;;
66669;SDS011;53568;52.164;4.472;2023-02-11T05:36:06;27.33;;;26.18;;
66669;SDS011;53568;52.164;4.472;2023-02-11T05:38:34;27.11;;;25.96;;
66669;SDS011;53568;52.164;4.472;2023-02-11T05:41:00;28.35;;;26.55;;
66669;SDS011;53568;52.164;4.472;2023-02-11T05:43:27;27.96;;;26.35;;
66669;SDS011;53568;52.164;4.472;2023-02-11T05:45:53;27.27;;;26.30;;
66669;SDS011;53568;52.164;4.472;2023-02-11T05:48:18;26.70;;;25.68;;
66669;SDS011;53568;52.164;4.472;2023-02-11T05:50:44;28.34;;;26.85;;
66669;SDS011;53568;52.164;4.472;2023-02-11T05:53:10;27.86;;;26.56;;
66669;SDS011;53568;52.164;4.472;2023-02-11T05:55:36;28.94;;;27.38;;
66669;SDS011;53568;52.164;4.472;2023-02-11T05:58:02;28.89;;;27.09;;
66669;SDS011;53568;52.164;4.472;2023-02-11T06:00:29;28.68;;;27.40;;
66669;SDS011;53568;52.164;4.472;2023-02-11T06:02:55;28.22;;;26.97;;
66669;SDS011;53568;52.164;4.472;2023-02-11T06:05:20;27.62;;;26.36;;
66669;SDS011;53568;52.164;4.472;2023-02-11T06:07:46;29.08;;;27.47;;
66669;SDS011;53568;52.164;4.472;2023-02-11T06:10:11;28.61;;;27.13;;
66669;SDS011;53568;52.164;4.472;2023-02-11T06:12:37;28.31;;;27.01;;
66669;SDS011;53568;52.164;4.472;2023-02-11T06:15:03;28.10;;;26.41;;
66669;SDS011;53568;52.164;4.472;2023-02-11T06:17:30;28.16;;;26.70;;
66669;SDS011;53568;52.164;4.472;2023-02-11T06:19:57;29.27;;;27.59;;
66669;SDS011;53568;52.164;4.472;2023-02-11T06:22:24;28.41;;;26.97;;
66669;SDS011;53568;52.164;4.472;2023-02-11T06:24:50;28.84;;;27.31;;
66669;SDS011;53568;52.164;4.472;2023-02-11T06:27:16;28.96;;;27.57;;
66669;SDS011;53568;52.164;4.472;2023-02-11T06:29:43;29.75;;;28.26;;
66669;SDS011;53568;52.164;4.472;2023-02-11T06:32:09;29.10;;;27.66;;
66669;SDS011;53568;52.164;4.472;2023-02-11T06:34:35;29.85;;;28.16;;
66669;SDS011;53568;52.164;4.472;2023-02-11T06:37:00;29.08;;;27.72;;
66669;SDS011;53568;52.164;4.472;2023-02-11T06:39:26;29.48;;;28.00;;
66669;SDS011;53568;52.164;4.472;2023-02-11T06:41:52;29.50;;;28.21;;
66669;SDS011;53568;52.164;4.472;2023-02-11T06:44:17;29.27;;;27.82;;
66669;SDS011;53568;52.164;4.472;2023-02-11T06:46:43;28.13;;;27.06;;
66669;SDS011;53568;52.164;4.472;2023-02-11T06:49:08;28.48;;;27.13;;
66669;SDS011;53568;52.164;4.472;2023-02-11T06:51:34;28.58;;;27.34;;
66669;SDS011;53568;52.164;4.472;2023-02-11T06:53:59;27.62;;;26.67;;
66669;SDS011;53568;52.164;4.472;2023-02-11T06:56:25;28.34;;;27.19;;
66669;SDS011;53568;52.164;4.472;2023-02-11T06:58:52;27.83;;;26.69;;
66669;SDS011;53568;52.164;4.472;2023-02-11T07:01:22;28.05;;;26.77;;
66669;SDS011;53568;52.164;4.472;2023-02-11T07:03:50;27.42;;;25.88;;
66669;SDS011;53568;52.164;4.472;2023-02-11T07:06:18;26.51;;;25.66;;
66669;SDS011;53568;52.164;4.472;2023-02-11T07:08:45;26.88;;;25.75;;
66669;SDS011;53568;52.164;4.472;2023-02-11T07:11:13;28.44;;;26.67;;
66669;SDS011;53568;52.164;4.472;2023-02-11T07:13:44;25.82;;;24.94;;
66669;SDS011;53568;52.164;4.472;2023-02-11T07:16:12;26.68;;;25.51;;
66669;SDS011;53568;52.164;4.472;2023-02-11T07:18:40;27.38;;;25.99;;
66669;SDS011;53568;52.164;4.472;2023-02-11T07:21:07;26.42;;;25.09;;
66669;SDS011;53568;52.164;4.472;2023-02-11T07:23:35;25.81;;;24.93;;
66669;SDS011;53568;52.164;4.472;2023-02-11T07:26:11;24.98;;;24.01;;
66669;SDS011;53568;52.164;4.472;2023-02-11T07:28:39;26.46;;;25.56;;
66669;SDS011;53568;52.164;4.472;2023-02-11T07:31:09;26.81;;;25.60;;
66669;SDS011;53568;52.164;4.472;2023-02-11T07:33:39;26.20;;;25.19;;
66669;SDS011;53568;52.164;4.472;2023-02-11T07:36:05;27.12;;;26.00;;
66669;SDS011;53568;52.164;4.472;2023-02-11T07:38:33;26.52;;;25.37;;
66669;SDS011;53568;52.164;4.472;2023-02-11T07:41:00;26.75;;;25.54;;
66669;SDS011;53568;52.164;4.472;2023-02-11T07:43:26;25.78;;;24.93;;
66669;SDS011;53568;52.164;4.472;2023-02-11T07:45:52;27.15;;;26.14;;
66669;SDS011;53568;52.164;4.472;2023-02-11T07:48:18;26.69;;;25.33;;
66669;SDS011;53568;52.164;4.472;2023-02-11T07:50:43;27.19;;;25.91;;
66669;SDS011;53568;52.164;4.472;2023-02-11T07:53:09;26.99;;;25.88;;
66669;SDS011;53568;52.164;4.472;2023-02-11T07:55:34;26.87;;;25.94;;
66669;SDS011;53568;52.164;4.472;2023-02-11T07:58:00;26.57;;;25.66;;
66669;SDS011;53568;52.164;4.472;2023-02-11T08:00:25;26.95;;;25.73;;
66669;SDS011;53568;52.164;4.472;2023-02-11T08:02:51;26.05;;;25.21;;
66669;SDS011;53568;52.164;4.472;2023-02-11T08:05:16;25.07;;;24.37;;
66669;SDS011;53568;52.164;4.472;2023-02-11T08:07:42;26.12;;;24.89;;
66669;SDS011;53568;52.164;4.472;2023-02-11T08:10:07;25.40;;;24.69;;
66669;SDS011;53568;52.164;4.472;2023-02-11T08:12:33;25.10;;;24.40;;
66669;SDS011;53568;52.164;4.472;2023-02-11T08:14:58;24.68;;;24.00;;
66669;SDS011;53568;52.164;4.472;2023-02-11T08:17:24;24.99;;;24.22;;
66669;SDS011;53568;52.164;4.472;2023-02-11T08:19:49;25.35;;;24.24;;
66669;SDS011;53568;52.164;4.472;2023-02-11T08:22:15;24.87;;;23.67;;
66669;SDS011;53568;52.164;4.472;2023-02-11T08:24:40;24.49;;;23.60;;
66669;SDS011;53568;52.164;4.472;2023-02-11T08:27:06;24.92;;;23.89;;
66669;SDS011;53568;52.164;4.472;2023-02-11T08:29:31;23.99;;;23.17;;
66669;SDS011;53568;52.164;4.472;2023-02-11T08:31:57;24.82;;;23.79;;
66669;SDS011;53568;52.164;4.472;2023-02-11T08:34:23;24.73;;;23.66;;
66669;SDS011;53568;52.164;4.472;2023-02-11T08:36:48;24.31;;;23.54;;
66669;SDS011;53568;52.164;4.472;2023-02-11T08:39:15;23.76;;;23.06;;
66669;SDS011;53568;52.164;4.472;2023-02-11T08:41:43;23.31;;;22.69;;
66669;SDS011;53568;52.164;4.472;2023-02-11T08:44:10;23.54;;;22.86;;
66669;SDS011;53568;52.164;4.472;2023-02-11T08:46:35;23.85;;;22.95;;
66669;SDS011;53568;52.164;4.472;2023-02-11T08:49:02;23.82;;;22.83;;
66669;SDS011;53568;52.164;4.472;2023-02-11T08:51:28;22.28;;;21.70;;
66669;SDS011;53568;52.164;4.472;2023-02-11T08:53:56;22.60;;;22.00;;
66669;SDS011;53568;52.164;4.472;2023-02-11T08:56:22;22.08;;;21.42;;
66669;SDS011;53568;52.164;4.472;2023-02-11T08:58:48;21.64;;;21.20;;
66669;SDS011;53568;52.164;4.472;2023-02-11T09:01:18;22.10;;;21.60;;
66669;SDS011;53568;52.164;4.472;2023-02-11T09:03:47;22.26;;;21.72;;
66669;SDS011;53568;52.164;4.472;2023-02-11T09:06:13;21.28;;;20.80;;
66669;SDS011;53568;52.164;4.472;2023-02-11T09:08:40;21.62;;;21.11;;
66669;SDS011;53568;52.164;4.472;2023-02-11T09:11:07;21.74;;;21.25;;
66669;SDS011;53568;52.164;4.472;2023-02-11T09:13:33;21.40;;;21.11;;
66669;SDS011;53568;52.164;4.472;2023-02-11T09:16:00;21.36;;;20.95;;
66669;SDS011;53568;52.164;4.472;2023-02-11T09:18:28;20.31;;;19.85;;
66669;SDS011;53568;52.164;4.472;2023-02-11T09:21:03;19.61;;;19.10;;
66669;SDS011;53568;52.164;4.472;2023-02-11T09:23:30;19.52;;;18.95;;
66669;SDS011;53568;52.164;4.472;2023-02-11T09:25:59;18.45;;;18.12;;
66669;SDS011;53568;52.164;4.472;2023-02-11T09:28:29;18.99;;;18.57;;
66669;SDS011;53568;52.164;4.472;2023-02-11T09:30:55;18.08;;;17.76;;
66669;SDS011;53568;52.164;4.472;2023-02-11T09:33:21;18.78;;;18.24;;
66669;SDS011;53568;52.164;4.472;2023-02-11T09:35:46;17.69;;;17.33;;
66669;SDS011;53568;52.164;4.472;2023-02-11T09:38:12;18.44;;;18.04;;
66669;SDS011;53568;52.164;4.472;2023-02-11T09:40:41;18.02;;;17.63;;
66669;SDS011;53568;52.164;4.472;2023-02-11T09:43:16;19.16;;;18.76;;
66669;SDS011;53568;52.164;4.472;2023-02-11T09:45:45;18.66;;;18.35;;
66669;SDS011;53568;52.164;4.472;2023-02-11T09:48:13;19.18;;;18.65;;
66669;SDS011;53568;52.164;4.472;2023-02-11T09:50:55;18.77;;;18.33;;
66669;SDS011;53568;52.164;4.472;2023-02-11T09:53:25;19.00;;;18.53;;
66669;SDS011;53568;52.164;4.472;2023-02-11T09:55:54;18.03;;;17.73;;
66669;SDS011;53568;52.164;4.472;2023-02-11T10:00:58;18.83;;;18.33;;
66669;SDS011;53568;52.164;4.472;2023-02-11T10:03:49;18.35;;;17.88;;
66669;SDS011;53568;52.164;4.472;2023-02-11T10:06:34;19.40;;;18.80;;
66669;SDS011;53568;52.164;4.472;2023-02-11T10:14:30;19.36;;;18.89;;
66669;SDS011;53568;52.164;4.472;2023-02-11T10:27:50;19.90;;;19.23;;
66669;SDS011;53568;52.164;4.472;2023-02-11T10:30:36;19.74;;;19.23;;
66669;SDS011;53568;52.164;4.472;2023-02-11T10:35:58;19.92;;;19.27;;
66669;SDS011;53568;52.164;4.472;2023-02-11T10:38:24;19.84;;;19.24;;
66669;SDS011;53568;52.164;4.472;2023-02-11T10:40:50;18.96;;;18.47;;
66669;SDS011;53568;52.164;4.472;2023-02-11T10:43:16;18.92;;;18.52;;
66669;SDS011;53568;52.164;4.472;2023-02-11T10:45:47;18.62;;;18.17;;
66669;SDS011;53568;52.164;4.472;2023-02-11T10:51:06;18.57;;;18.19;;
66669;SDS011;53568;52.164;4.472;2023-02-11T10:53:43;19.03;;;18.67;;
66669;SDS011;53568;52.164;4.472;2023-02-11T10:56:31;18.55;;;18.31;;
66669;SDS011;53568;52.164;4.472;2023-02-11T10:59:31;18.77;;;18.45;;
66669;SDS011;53568;52.164;4.472;2023-02-11T11:04:48;19.43;;;19.04;;
66669;SDS011;53568;52.164;4.472;2023-02-11T11:09:52;19.66;;;19.22;;
66669;SDS011;53568;52.164;4.472;2023-02-11T11:12:44;19.72;;;19.34;;
66669;SDS011;53568;52.164;4.472;2023-02-11T11:15:14;19.22;;;18.86;;
66669;SDS011;53568;52.164;4.472;2023-02-11T11:17:43;19.12;;;18.87;;
66669;SDS011;53568;52.164;4.472;2023-02-11T11:23:08;19.90;;;19.37;;
66669;SDS011;53568;52.164;4.472;2023-02-11T11:25:42;19.52;;;19.00;;
66669;SDS011;53568;52.164;4.472;2023-02-11T11:28:24;19.95;;;19.52;;
66669;SDS011;53568;52.164;4.472;2023-02-11T11:30:52;20.01;;;19.58;;
66669;SDS011;53568;52.164;4.472;2023-02-11T11:33:25;19.62;;;19.13;;
66669;SDS011;53568;52.164;4.472;2023-02-11T11:35:54;19.45;;;19.08;;
66669;SDS011;53568;52.164;4.472;2023-02-11T11:38:24;19.42;;;19.03;;
66669;SDS011;53568;52.164;4.472;2023-02-11T11:44:23;19.89;;;19.49;;
66669;SDS011;53568;52.164;4.472;2023-02-11T11:46:52;19.16;;;18.78;;
66669;SDS011;53568;52.164;4.472;2023-02-11T11:49:34;19.43;;;19.03;;
66669;SDS011;53568;52.164;4.472;2023-02-11T11:57:45;18.86;;;18.57;;
66669;SDS011;53568;52.164;4.472;2023-02-11T12:00:23;18.78;;;18.31;;
66669;SDS011;53568;52.164;4.472;2023-02-11T12:03:04;18.69;;;18.26;;
66669;SDS011;53568;52.164;4.472;2023-02-11T12:06:11;18.72;;;18.22;;
66669;SDS011;53568;52.164;4.472;2023-02-11T12:08:49;17.36;;;17.10;;
66669;SDS011;53568;52.164;4.472;2023-02-11T12:14:28;17.42;;;17.22;;
66669;SDS011;53568;52.164;4.472;2023-02-11T12:20:16;17.27;;;17.01;;
66669;SDS011;53568;52.164;4.472;2023-02-11T12:22:57;17.39;;;17.03;;
66669;SDS011;53568;52.164;4.472;2023-02-11T12:28:28;16.72;;;16.42;;
66669;SDS011;53568;52.164;4.472;2023-02-11T12:48:23;14.84;;;14.55;;
66669;SDS011;53568;52.164;4.472;2023-02-11T12:51:14;15.03;;;14.77;;
66669;SDS011;53568;52.164;4.472;2023-02-11T12:56:25;14.52;;;14.16;;
66669;SDS011;53568;52.164;4.472;2023-02-11T12:59:03;14.74;;;14.52;;
66669;SDS011;53568;52.164;4.472;2023-02-11T13:01:57;13.99;;;13.79;;
66669;SDS011;53568;52.164;4.472;2023-02-11T13:04:30;14.67;;;14.35;;
66669;SDS011;53568;52.164;4.472;2023-02-11T13:07:04;14.15;;;13.86;;
66669;SDS011;53568;52.164;4.472;2023-02-11T13:09:44;12.85;;;12.69;;
66669;SDS011;53568;52.164;4.472;2023-02-11T13:12:27;13.72;;;13.50;;
66669;SDS011;53568;52.164;4.472;2023-02-11T13:15:15;13.47;;;13.33;;
66669;SDS011;53568;52.164;4.472;2023-02-11T13:22:57;13.10;;;12.89;;
66669;SDS011;53568;52.164;4.472;2023-02-11T13:25:35;13.63;;;13.45;;
66669;SDS011;53568;52.164;4.472;2023-02-11T13:30:50;13.13;;;12.99;;
66669;SDS011;53568;52.164;4.472;2023-02-11T13:33:33;13.55;;;13.22;;
66669;SDS011;53568;52.164;4.472;2023-02-11T13:36:14;13.08;;;12.85;;
66669;SDS011;53568;52.164;4.472;2023-02-11T13:38:52;12.92;;;12.76;;
66669;SDS011;53568;52.164;4.472;2023-02-11T13:41:42;12.87;;;12.69;;
66669;SDS011;53568;52.164;4.472;2023-02-11T13:46:49;12.65;;;12.49;;
66669;SDS011;53568;52.164;4.472;2023-02-11T13:49:18;13.02;;;12.79;;
66669;SDS011;53568;52.164;4.472;2023-02-11T13:51:47;13.32;;;12.95;;
66669;SDS011;53568;52.164;4.472;2023-02-11T13:54:18;12.25;;;12.14;;
66669;SDS011;53568;52.164;4.472;2023-02-11T14:02:22;12.00;;;11.90;;
66669;SDS011;53568;52.164;4.472;2023-02-11T14:05:30;12.05;;;11.99;;
66669;SDS011;53568;52.164;4.472;2023-02-11T14:08:18;12.33;;;12.12;;
66669;SDS011;53568;52.164;4.472;2023-02-11T14:16:22;11.93;;;11.89;;
66669;SDS011;53568;52.164;4.472;2023-02-11T14:40:13;11.06;;;10.89;;
66669;SDS011;53568;52.164;4.472;2023-02-11T14:43:12;11.49;;;11.41;;
66669;SDS011;53568;52.164;4.472;2023-02-11T14:45:47;11.53;;;11.47;;
66669;SDS011;53568;52.164;4.472;2023-02-11T14:48:17;11.16;;;11.11;;
66669;SDS011;53568;52.164;4.472;2023-02-11T14:50:51;10.95;;;10.95;;
66669;SDS011;53568;52.164;4.472;2023-02-11T14:53:27;10.96;;;10.93;;
66669;SDS011;53568;52.164;4.472;2023-02-11T14:55:56;10.67;;;10.59;;
66669;SDS011;53568;52.164;4.472;2023-02-11T14:58:23;10.68;;;10.56;;
66669;SDS011;53568;52.164;4.472;2023-02-11T15:00:55;10.54;;;10.40;;
66669;SDS011;53568;52.164;4.472;2023-02-11T15:03:39;10.25;;;10.18;;
66669;SDS011;53568;52.164;4.472;2023-02-11T15:06:16;9.88;;;9.85;;
66669;SDS011;53568;52.164;4.472;2023-02-11T15:11:46;10.11;;;10.04;;
66669;SDS011;53568;52.164;4.472;2023-02-11T15:14:22;9.93;;;9.88;;
66669;SDS011;53568;52.164;4.472;2023-02-11T15:16:50;9.66;;;9.57;;
66669;SDS011;53568;52.164;4.472;2023-02-11T15:19:28;10.18;;;10.10;;
66669;SDS011;53568;52.164;4.472;2023-02-11T15:21:59;9.91;;;9.83;;
66669;SDS011;53568;52.164;4.472;2023-02-11T15:27:03;9.90;;;9.82;;
66669;SDS011;53568;52.164;4.472;2023-02-11T15:29:45;9.94;;;9.88;;
66669;SDS011;53568;52.164;4.472;2023-02-11T15:34:40;9.74;;;9.71;;
66669;SDS011;53568;52.164;4.472;2023-02-11T15:37:19;8.94;;;8.92;;
66669;SDS011;53568;52.164;4.472;2023-02-11T15:40:07;9.35;;;9.32;;
66669;SDS011;53568;52.164;4.472;2023-02-11T15:42:36;9.47;;;9.44;;
66669;SDS011;53568;52.164;4.472;2023-02-11T15:47:39;8.99;;;8.96;;
66669;SDS011;53568;52.164;4.472;2023-02-11T15:50:18;8.92;;;8.91;;
66669;SDS011;53568;52.164;4.472;2023-02-11T15:52:54;8.69;;;8.68;;
66669;SDS011;53568;52.164;4.472;2023-02-11T15:55:22;8.44;;;8.43;;
66669;SDS011;53568;52.164;4.472;2023-02-11T15:57:57;8.09;;;8.08;;
66669;SDS011;53568;52.164;4.472;2023-02-11T16:00:31;8.33;;;8.32;;
66669;SDS011;53568;52.164;4.472;2023-02-11T16:03:01;8.21;;;8.20;;
66669;SDS011;53568;52.164;4.472;2023-02-11T16:05:28;8.36;;;8.36;;
66669;SDS011;53568;52.164;4.472;2023-02-11T16:07:54;8.46;;;8.46;;
66669;SDS011;53568;52.164;4.472;2023-02-11T16:13:14;8.23;;;8.22;;
66669;SDS011;53568;52.164;4.472;2023-02-11T16:20:58;8.32;;;8.32;;
66669;SDS011;53568;52.164;4.472;2023-02-11T16:23:28;8.48;;;8.47;;
66669;SDS011;53568;52.164;4.472;2023-02-11T16:31:40;8.26;;;8.25;;
66669;SDS011;53568;52.164;4.472;2023-02-11T16:36:43;8.66;;;8.66;;
66669;SDS011;53568;52.164;4.472;2023-02-11T16:39:09;8.50;;;8.47;;
66669;SDS011;53568;52.164;4.472;2023-02-11T16:41:35;8.80;;;8.79;;
66669;SDS011;53568;52.164;4.472;2023-02-11T16:44:00;8.71;;;8.64;;
66669;SDS011;53568;52.164;4.472;2023-02-11T16:46:26;8.82;;;8.80;;
66669;SDS011;53568;52.164;4.472;2023-02-11T16:48:53;8.62;;;8.60;;
66669;SDS011;53568;52.164;4.472;2023-02-11T16:51:20;8.33;;;8.31;;
66669;SDS011;53568;52.164;4.472;2023-02-11T16:53:46;8.91;;;8.91;;
66669;SDS011;53568;52.164;4.472;2023-02-11T16:56:13;8.80;;;8.77;;
66669;SDS011;53568;52.164;4.472;2023-02-11T16:58:43;8.97;;;8.92;;
66669;SDS011;53568;52.164;4.472;2023-02-11T17:01:09;8.56;;;8.56;;
66669;SDS011;53568;52.164;4.472;2023-02-11T17:03:35;8.36;;;8.35;;
66669;SDS011;53568;52.164;4.472;2023-02-11T17:06:07;8.51;;;8.46;;
66669;SDS011;53568;52.164;4.472;2023-02-11T17:08:35;8.80;;;8.79;;
66669;SDS011;53568;52.164;4.472;2023-02-11T17:11:01;9.12;;;9.11;;
66669;SDS011;53568;52.164;4.472;2023-02-11T17:13:27;8.84;;;8.82;;
66669;SDS011;53568;52.164;4.472;2023-02-11T17:15:53;8.81;;;8.77;;
66669;SDS011;53568;52.164;4.472;2023-02-11T17:18:19;8.92;;;8.87;;
66669;SDS011;53568;52.164;4.472;2023-02-11T17:20:44;8.84;;;8.83;;
66669;SDS011;53568;52.164;4.472;2023-02-11T17:23:10;8.93;;;8.93;;
66669;SDS011;53568;52.164;4.472;2023-02-11T17:25:35;8.79;;;8.79;;
66669;SDS011;53568;52.164;4.472;2023-02-11T17:28:02;8.61;;;8.57;;
66669;SDS011;53568;52.164;4.472;2023-02-11T17:30:29;9.03;;;9.02;;
66669;SDS011;53568;52.164;4.472;2023-02-11T17:32:54;8.58;;;8.57;;
66669;SDS011;53568;52.164;4.472;2023-02-11T17:35:20;8.83;;;8.82;;
66669;SDS011;53568;52.164;4.472;2023-02-11T17:37:45;8.78;;;8.76;;
66669;SDS011;53568;52.164;4.472;2023-02-11T17:40:11;9.02;;;8.94;;
66669;SDS011;53568;52.164;4.472;2023-02-11T17:42:37;9.09;;;9.04;;
66669;SDS011;53568;52.164;4.472;2023-02-11T17:45:03;8.61;;;8.60;;
66669;SDS011;53568;52.164;4.472;2023-02-11T17:47:29;8.94;;;8.93;;